Terminal Aerodrome Forecast
Issued by NWS

Home | Current Version | Previous Version | Graphics & Text | Print | Product List | Glossary On
Versions: 1 2 3 4 5 6 7 8 9 10 11 12 13 14 15 16 17 18 19 20 21 22
000
FTUS43 KLSX 260200 AAB
TAFSUS
TAF AMD
KSUS 260259Z 2603/2624 34012KT P6SM OVC009
     FM260500 31008KT P6SM OVC012
     FM261700 20006KT P6SM SCT020 BKN080=

USA.gov is the U.S. government's official web portal to all federal, state and local government web resources and services.